CFG9EW LGIR-EDDF
Flight info
| Callsign | CFG9EW |
|---|---|
| Flight time | N/A |
| Altitude | 34000 |
| Route | EPALO UM749 DIRMI UL613 XANIS DCT DIMIS DCT PETAK/N0451F360 DCT GLOMY DCT ELTIB DCT TUPUS DCT GORPA DCT SIMBA DCT AKINI T161 DEBHI DEBHI1C |
| Aircraft | A320/M-SDE3FGHIJ1LORVWXYZ/LB1 |
Departure
| Time | 2026-04-29 15:21 |
|---|---|
| Airport | Heraklion International Nikos Kazantzakis Airport (LGIR) |
Arrival
| Time | N/A |
|---|---|
| Airport | Frankfurt Main Airport (EDDF) |
| Time | Latitude | Longitude | Altitude | Speed | Heading |
|---|---|---|---|---|---|
| 2026-04-29 14:41 | 35.33868 | 25.17548 | 91 ft | 0 kts | 316° |
| 2026-04-29 15:14 | 35.33880 | 25.17534 | 94 ft | 6 kts | 312° |
| 2026-04-29 15:14 | 35.33905 | 25.17539 | 92 ft | 3 kts | 36° |
| 2026-04-29 15:15 | 35.33908 | 25.17557 | 92 ft | 3 kts | 87° |
| 2026-04-29 15:15 | 35.33904 | 25.17613 | 91 ft | 12 kts | 95° |
| 2026-04-29 15:15 | 35.33896 | 25.17728 | 93 ft | 13 kts | 95° |
| 2026-04-29 15:15 | 35.33889 | 25.17828 | 92 ft | 11 kts | 95° |
| 2026-04-29 15:16 | 35.33883 | 25.17913 | 94 ft | 9 kts | 94° |
| 2026-04-29 15:16 | 35.33879 | 25.17986 | 91 ft | 8 kts | 95° |
| 2026-04-29 15:16 | 35.33874 | 25.18045 | 92 ft | 7 kts | 95° |
| 2026-04-29 15:16 | 35.33866 | 25.18156 | 93 ft | 17 kts | 95° |
| 2026-04-29 15:17 | 35.33857 | 25.18292 | 92 ft | 15 kts | 95° |
| 2026-04-29 15:17 | 35.33848 | 25.18421 | 90 ft | 15 kts | 95° |
| 2026-04-29 15:17 | 35.33840 | 25.18539 | 92 ft | 13 kts | 95° |
| 2026-04-29 15:17 | 35.33833 | 25.18641 | 90 ft | 11 kts | 95° |
| 2026-04-29 15:18 | 35.33827 | 25.18729 | 90 ft | 9 kts | 95° |
| 2026-04-29 15:18 | 35.33822 | 25.18802 | 90 ft | 8 kts | 95° |
| 2026-04-29 15:18 | 35.33819 | 25.18843 | 90 ft | 1 kts | 95° |
| 2026-04-29 15:18 | 35.33819 | 25.18844 | 90 ft | 0 kts | 95° |
| 2026-04-29 15:19 | 35.33818 | 25.18861 | 90 ft | 8 kts | 95° |
| 2026-04-29 15:20 | 35.33837 | 25.18960 | 90 ft | 13 kts | 55° |
| 2026-04-29 15:20 | 35.33897 | 25.19007 | 88 ft | 11 kts | 318° |
| 2026-04-29 15:20 | 35.33919 | 25.18843 | 89 ft | 45 kts | 275° |
| 2026-04-29 15:20 | 35.33965 | 25.18167 | 93 ft | 111 kts | 275° |
| 2026-04-29 15:21 | 35.34047 | 25.16991 | 105 ft | 162 kts | 276° |
| 2026-04-29 15:21 | 35.34144 | 25.15617 | 687 ft | 163 kts | 277° |
| 2026-04-29 15:21 | 35.34551 | 25.14333 | 1271 ft | 168 kts | 320° |
| 2026-04-29 15:21 | 35.35606 | 25.13772 | 1899 ft | 168 kts | 347° |
| 2026-04-29 15:22 | 35.36752 | 25.13411 | 2415 ft | 170 kts | 346° |
| 2026-04-29 15:22 | 35.37891 | 25.13033 | 2976 ft | 169 kts | 346° |
| 2026-04-29 15:22 | 35.39032 | 25.12647 | 3441 ft | 176 kts | 346° |
| 2026-04-29 15:22 | 35.40286 | 25.12219 | 3633 ft | 198 kts | 345° |
| 2026-04-29 15:23 | 35.41686 | 25.11736 | 3872 ft | 218 kts | 345° |
| 2026-04-29 15:23 | 35.43224 | 25.11197 | 4102 ft | 242 kts | 345° |
| 2026-04-29 15:23 | 35.44906 | 25.10600 | 4568 ft | 258 kts | 344° |
| 2026-04-29 15:23 | 35.46649 | 25.09977 | 5299 ft | 263 kts | 344° |
| 2026-04-29 15:24 | 35.48417 | 25.09343 | 6081 ft | 266 kts | 344° |
| 2026-04-29 15:24 | 35.50206 | 25.08698 | 6847 ft | 270 kts | 344° |
| 2026-04-29 15:24 | 35.52017 | 25.08049 | 7596 ft | 272 kts | 344° |
| 2026-04-29 15:24 | 35.53845 | 25.07392 | 8360 ft | 275 kts | 343° |
| 2026-04-29 15:25 | 35.55688 | 25.06730 | 9123 ft | 277 kts | 343° |
| 2026-04-29 15:25 | 35.57549 | 25.06063 | 9891 ft | 280 kts | 343° |
| 2026-04-29 15:25 | 35.59441 | 25.05385 | 10394 ft | 292 kts | 343° |
| 2026-04-29 15:25 | 35.61468 | 25.04657 | 10550 ft | 315 kts | 343° |
| 2026-04-29 15:26 | 35.63643 | 25.03875 | 10750 ft | 334 kts | 343° |
| 2026-04-29 15:26 | 35.65900 | 25.03062 | 11287 ft | 341 kts | 343° |
| 2026-04-29 15:26 | 35.68193 | 25.02236 | 11918 ft | 345 kts | 343° |